Time,TemperatureF,DewpointF,PressureIn,WindDirection,WindDirectionDegrees,WindSpeedMPH,WindSpeedGustMPH,Humidity,HourlyPrecipIn,Conditions,Clouds,dailyrainin,SoftwareType,DateUTC
2013-08-16 00:00:00,68.9,63.2,30.02,NNW,338,8.0,15.0,82,1.10,,---,0.04,VWS V14.00,2013-08-16 05:00:00,
2013-08-16 00:05:00,67.4,62.4,30.03,NNW,338,6.0,12.0,84,0.32,,---,0.06,VWS V14.00,2013-08-16 05:05:00,
2013-08-16 00:10:00,66.5,62.2,30.03,North,0,5.0,9.0,86,0.46,,---,0.08,VWS V14.00,2013-08-16 05:10:00,
2013-08-16 00:15:00,65.9,61.9,30.03,North,0,3.0,6.0,87,0.82,,---,0.13,VWS V14.00,2013-08-16 05:15:00,
2013-08-16 00:20:00,65.5,62.2,30.02,North,0,2.0,6.0,89,0.82,,---,0.16,VWS V14.00,2013-08-16 05:20:00,
2013-08-16 00:25:00,65.3,62.0,30.02,North,0,1.0,4.0,89,0.34,,---,0.17,VWS V14.00,2013-08-16 05:25:00,
2013-08-16 00:30:00,65.3,62.3,30.02,North,0,0.0,3.0,90,0.24,,---,0.19,VWS V14.00,2013-08-16 05:30:00,
2013-08-16 00:35:00,65.3,62.3,30.02,North,0,0.0,0.0,90,0.24,,---,0.20,VWS V14.00,2013-08-16 05:35:00,
2013-08-16 00:40:00,65.3,62.6,30.02,North,0,0.0,0.0,91,0.19,,---,0.21,VWS V14.00,2013-08-16 05:40:00,
2013-08-16 00:45:00,65.3,62.6,30.01,North,0,0.0,0.0,91,0.33,,---,0.23,VWS V14.00,2013-08-16 05:45:00,
2013-08-16 00:50:00,65.3,62.6,30.01,North,0,0.0,0.0,91,0.36,,---,0.26,VWS V14.00,2013-08-16 05:50:00,
2013-08-16 00:55:00,65.3,62.6,30.01,North,0,0.0,0.0,91,0.27,,---,0.27,VWS V14.00,2013-08-16 05:55:00,
2013-08-16 01:00:00,65.3,62.9,30.01,North,0,0.0,0.0,92,0.40,,---,0.30,VWS V14.00,2013-08-16 06:00:00,
2013-08-16 01:05:00,65.4,63.0,30.01,North,0,1.0,3.0,92,0.39,,---,0.32,VWS V14.00,2013-08-16 06:05:00,
2013-08-16 01:10:00,65.4,63.0,30.00,North,0,0.0,0.0,92,0.42,,---,0.35,VWS V14.00,2013-08-16 06:10:00,
2013-08-16 01:15:00,65.3,62.9,30.00,North,0,0.0,0.0,92,0.42,,---,0.37,VWS V14.00,2013-08-16 06:15:00,
2013-08-16 01:20:00,65.3,62.9,29.99,North,0,1.0,5.0,92,0.31,,---,0.38,VWS V14.00,2013-08-16 06:20:00,
2013-08-16 01:25:00,65.2,62.8,29.99,North,0,5.0,7.0,92,0.44,,---,0.41,VWS V14.00,2013-08-16 06:25:00,
2013-08-16 01:30:00,65.3,62.9,29.98,North,0,6.0,10.0,92,0.76,,---,0.45,VWS V14.00,2013-08-16 06:30:00,
2013-08-16 01:35:00,65.2,62.8,29.97,SE,135,6.0,9.0,92,0.58,,---,0.48,VWS V14.00,2013-08-16 06:35:00,
2013-08-16 01:40:00,65.1,63.0,29.96,SE,135,6.0,11.0,93,0.32,,---,0.50,VWS V14.00,2013-08-16 06:40:00,
2013-08-16 01:45:00,65.1,63.0,29.96,SSE,158,6.0,11.0,93,0.21,,---,0.51,VWS V14.00,2013-08-16 06:45:00,
2013-08-16 01:50:00,65.1,63.0,29.95,SSE,158,6.0,10.0,93,0.21,,---,0.52,VWS V14.00,2013-08-16 06:50:00,
2013-08-16 01:55:00,65.1,63.0,29.94,SSE,158,7.0,12.0,93,0.15,,---,0.53,VWS V14.00,2013-08-16 06:55:00,
2013-08-16 02:00:00,65.1,63.0,29.92,SSE,158,10.0,15.0,93,0.07,,---,0.53,VWS V14.00,2013-08-16 07:00:00,
2013-08-16 02:05:00,65.0,62.9,29.91,SSE,158,11.0,16.0,93,0.07,,---,0.54,VWS V14.00,2013-08-16 07:05:00,
2013-08-16 02:10:00,65.0,62.9,29.91,SSE,158,8.0,15.0,93,0.08,,---,0.55,VWS V14.00,2013-08-16 07:10:00,
2013-08-16 02:15:00,65.0,62.9,29.90,SSE,158,9.0,14.0,93,0.08,,---,0.55,VWS V14.00,2013-08-16 07:15:00,
2013-08-16 02:20:00,65.0,62.9,29.90,SSE,158,8.0,12.0,93,0.05,,---,0.55,VWS V14.00,2013-08-16 07:20:00,
2013-08-16 02:25:00,65.0,62.9,29.91,South,180,8.0,15.0,93,0.04,,---,0.55,VWS V14.00,2013-08-16 07:25:00,
2013-08-16 02:30:00,65.1,63.0,29.91,SSE,158,5.0,11.0,93,0.00,,---,0.55,VWS V14.00,2013-08-16 07:30:00,
2013-08-16 02:35:00,65.1,63.0,29.92,South,180,2.0,9.0,93,0.00,,---,0.55,VWS V14.00,2013-08-16 07:35:00,
2013-08-16 02:40:00,65.0,62.9,29.93,South,180,1.0,5.0,93,0.00,,---,0.55,VWS V14.00,2013-08-16 07:40:00,
2013-08-16 02:45:00,65.0,62.9,29.93,South,180,0.0,0.0,93,0.00,,---,0.55,VWS V14.00,2013-08-16 07:45:00,
2013-08-16 02:50:00,65.0,62.9,29.93,South,180,0.0,0.0,93,0.00,,---,0.55,VWS V14.00,2013-08-16 07:50:00,
2013-08-16 02:55:00,65.0,62.9,29.93,South,180,0.0,6.0,93,0.00,,---,0.55,VWS V14.00,2013-08-16 07:55:00,
2013-08-16 03:00:00,65.0,62.9,29.93,South,180,0.0,1.0,93,0.00,,---,0.55,VWS V14.00,2013-08-16 08:00:00,
2013-08-16 03:05:00,65.0,62.9,29.93,South,180,1.0,6.0,93,0.00,,---,0.55,VWS V14.00,2013-08-16 08:05:00,
2013-08-16 03:10:00,65.1,63.0,29.94,South,180,0.0,1.0,93,0.00,,---,0.55,VWS V14.00,2013-08-16 08:10:00,
2013-08-16 03:15:00,65.1,63.0,29.95,South,180,0.0,0.0,93,0.00,,---,0.55,VWS V14.00,2013-08-16 08:15:00,
2013-08-16 03:20:00,65.1,63.0,29.96,South,180,0.0,0.0,93,0.00,,---,0.55,VWS V14.00,2013-08-16 08:20:00,
2013-08-16 03:25:00,65.0,62.9,29.96,South,180,0.0,0.0,93,0.00,,---,0.55,VWS V14.00,2013-08-16 08:25:00,
2013-08-16 03:30:00,65.0,62.9,29.97,South,180,0.0,3.0,93,0.00,,---,0.55,VWS V14.00,2013-08-16 08:30:00,
2013-08-16 03:35:00,65.0,62.9,29.98,South,180,4.0,7.0,93,0.00,,---,0.55,VWS V14.00,2013-08-16 08:35:00,
2013-08-16 03:40:00,64.9,62.8,29.97,East,90,3.0,7.0,93,0.00,,---,0.55,VWS V14.00,2013-08-16 08:40:00,
2013-08-16 03:45:00,64.9,62.8,29.97,East,90,2.0,4.0,93,0.00,,---,0.55,VWS V14.00,2013-08-16 08:45:00,
2013-08-16 03:50:00,64.9,62.8,29.97,ENE,68,3.0,7.0,93,0.00,,---,0.55,VWS V14.00,2013-08-16 08:50:00,
2013-08-16 03:55:00,64.8,62.7,29.97,NE,45,4.0,6.0,93,0.00,,---,0.55,VWS V14.00,2013-08-16 08:55:00,
2013-08-16 04:00:00,64.8,62.7,29.97,NE,45,3.0,6.0,93,0.00,,---,0.55,VWS V14.00,2013-08-16 09:00:00,
2013-08-16 04:05:00,64.8,62.7,29.97,NE,45,3.0,6.0,93,0.00,,---,0.55,VWS V14.00,2013-08-16 09:05:00,
2013-08-16 04:10:00,64.8,62.7,29.97,NE,45,2.0,5.0,93,0.00,,---,0.55,VWS V14.00,2013-08-16 09:10:00,
2013-08-16 04:15:00,64.8,62.7,29.97,NE,45,0.0,3.0,93,0.00,,---,0.55,VWS V14.00,2013-08-16 09:15:00,
2013-08-16 04:20:00,64.8,62.7,29.96,NE,45,1.0,3.0,93,0.00,,---,0.55,VWS V14.00,2013-08-16 09:20:00,
2013-08-16 04:25:00,64.8,63.0,29.96,NE,45,0.0,0.0,94,0.00,,---,0.55,VWS V14.00,2013-08-16 09:25:00,
2013-08-16 04:30:00,64.8,63.0,29.96,NE,45,0.0,0.0,94,0.00,,---,0.55,VWS V14.00,2013-08-16 09:30:00,
2013-08-16 04:35:00,64.9,62.8,29.96,NE,45,0.0,0.0,93,0.00,,---,0.55,VWS V14.00,2013-08-16 09:35:00,
2013-08-16 04:40:00,64.9,62.8,29.95,NE,45,0.0,0.0,93,0.00,,---,0.55,VWS V14.00,2013-08-16 09:40:00,
2013-08-16 04:45:00,64.9,62.8,29.95,NE,45,0.0,0.0,93,0.00,,---,0.55,VWS V14.00,2013-08-16 09:45:00,
2013-08-16 04:50:00,64.9,62.8,29.96,NE,45,0.0,0.0,93,0.00,,---,0.55,VWS V14.00,2013-08-16 09:50:00,
2013-08-16 04:55:00,64.9,62.8,29.96,NE,45,0.0,0.0,93,0.00,,---,0.55,VWS V14.00,2013-08-16 09:55:00,
2013-08-16 05:00:00,64.8,63.0,29.96,NE,45,0.0,0.0,94,0.00,,---,0.55,VWS V14.00,2013-08-16 10:00:00,
2013-08-16 05:05:00,64.8,63.0,29.96,NE,45,0.0,0.0,94,0.00,,---,0.55,VWS V14.00,2013-08-16 10:05:00,
2013-08-16 05:10:00,64.8,63.0,29.96,NE,45,0.0,0.0,94,0.00,,---,0.55,VWS V14.00,2013-08-16 10:10:00,
2013-08-16 05:15:00,64.7,62.9,29.97,NE,45,0.0,0.0,94,0.00,,---,0.55,VWS V14.00,2013-08-16 10:15:00,
2013-08-16 05:20:00,64.7,62.9,29.96,NE,45,0.0,0.0,94,0.00,,---,0.55,VWS V14.00,2013-08-16 10:20:00,
2013-08-16 05:25:00,64.6,62.8,29.97,NE,45,0.0,0.0,94,0.00,,---,0.55,VWS V14.00,2013-08-16 10:25:00,
2013-08-16 05:30:00,64.6,62.8,29.97,NE,45,0.0,0.0,94,0.00,,---,0.55,VWS V14.00,2013-08-16 10:30:00,
2013-08-16 05:35:00,64.5,62.7,29.97,NE,45,0.0,0.0,94,0.00,,---,0.55,VWS V14.00,2013-08-16 10:35:00,
2013-08-16 05:40:00,64.5,62.7,29.97,NE,45,0.0,0.0,94,0.00,,---,0.55,VWS V14.00,2013-08-16 10:40:00,
2013-08-16 05:45:00,64.4,62.6,29.96,NE,45,0.0,0.0,94,0.00,,---,0.55,VWS V14.00,2013-08-16 10:45:00,
2013-08-16 05:50:00,64.3,62.5,29.96,NE,45,0.0,0.0,94,0.00,,---,0.55,VWS V14.00,2013-08-16 10:50:00,
2013-08-16 05:55:00,64.3,62.5,29.96,NE,45,0.0,0.0,94,0.00,,---,0.55,VWS V14.00,2013-08-16 10:55:00,
2013-08-16 06:00:00,64.2,62.4,29.96,NE,45,0.0,0.0,94,0.00,,---,0.55,VWS V14.00,2013-08-16 11:00:00,
2013-08-16 06:05:00,64.1,62.3,29.97,NE,45,0.0,0.0,94,0.00,,---,0.55,VWS V14.00,2013-08-16 11:05:00,
2013-08-16 06:10:00,63.9,62.1,29.97,NE,45,0.0,0.0,94,0.00,,---,0.55,VWS V14.00,2013-08-16 11:10:00,
2013-08-16 06:15:00,63.8,62.0,29.97,NE,45,0.0,0.0,94,0.00,,---,0.55,VWS V14.00,2013-08-16 11:15:00,
2013-08-16 06:20:00,63.8,62.0,29.97,NE,45,0.0,0.0,94,0.00,,---,0.55,VWS V14.00,2013-08-16 11:20:00,
2013-08-16 06:25:00,63.7,62.0,29.97,NE,45,0.0,0.0,94,0.00,,---,0.55,VWS V14.00,2013-08-16 11:25:00,
2013-08-16 06:30:00,63.7,62.0,29.97,NE,45,0.0,0.0,94,0.00,,---,0.55,VWS V14.00,2013-08-16 11:30:00,
2013-08-16 06:35:00,63.7,62.0,29.98,NE,45,0.0,0.0,94,0.00,,---,0.55,VWS V14.00,2013-08-16 11:35:00,
2013-08-16 06:40:00,63.7,62.0,29.98,NE,45,0.0,0.0,94,0.00,,---,0.55,VWS V14.00,2013-08-16 11:40:00,
2013-08-16 06:45:00,63.7,62.0,29.98,NE,45,0.0,0.0,94,0.00,,---,0.55,VWS V14.00,2013-08-16 11:45:00,
2013-08-16 06:50:00,63.7,62.0,29.99,NE,45,0.0,0.0,94,0.00,,---,0.55,VWS V14.00,2013-08-16 11:50:00,
2013-08-16 06:55:00,63.7,62.0,29.99,NE,45,0.0,0.0,94,0.00,,---,0.55,VWS V14.00,2013-08-16 11:55:00,
2013-08-16 07:00:00,63.7,62.0,29.99,NE,45,0.0,0.0,94,0.00,,---,0.55,VWS V14.00,2013-08-16 12:00:00,
2013-08-16 07:05:00,63.7,62.0,29.99,NE,45,0.0,0.0,94,0.00,,---,0.55,VWS V14.00,2013-08-16 12:05:00,
2013-08-16 07:10:00,63.6,61.8,29.99,NE,45,0.0,0.0,94,0.00,,---,0.55,VWS V14.00,2013-08-16 12:10:00,
2013-08-16 07:15:00,63.6,61.8,29.99,NE,45,0.0,0.0,94,0.00,,---,0.55,VWS V14.00,2013-08-16 12:15:00,
2013-08-16 07:20:00,63.7,62.0,30.00,NE,45,0.0,0.0,94,0.00,,---,0.55,VWS V14.00,2013-08-16 12:20:00,
2013-08-16 07:25:00,63.7,62.0,30.00,NE,45,0.0,0.0,94,0.00,,---,0.55,VWS V14.00,2013-08-16 12:25:00,
2013-08-16 07:30:00,63.9,62.1,30.00,NE,45,0.0,0.0,94,0.00,,---,0.55,VWS V14.00,2013-08-16 12:30:00,
2013-08-16 07:35:00,64.0,62.2,30.00,NE,45,0.0,0.0,94,0.00,,---,0.55,VWS V14.00,2013-08-16 12:35:00,
2013-08-16 07:40:00,64.2,62.4,30.00,NE,45,0.0,0.0,94,0.00,,---,0.55,VWS V14.00,2013-08-16 12:40:00,
2013-08-16 07:45:00,64.3,62.5,30.00,NE,45,0.0,0.0,94,0.00,,---,0.55,VWS V14.00,2013-08-16 12:45:00,
2013-08-16 07:50:00,64.5,62.7,30.01,NE,45,0.0,1.0,94,0.00,,---,0.55,VWS V14.00,2013-08-16 12:50:00,
2013-08-16 07:55:00,64.7,63.2,30.00,NE,45,0.0,0.0,95,0.00,,---,0.55,VWS V14.00,2013-08-16 12:55:00,
2013-08-16 08:00:00,64.9,63.4,30.01,NE,45,0.0,3.0,95,0.00,,---,0.55,VWS V14.00,2013-08-16 13:00:00,
2013-08-16 08:05:00,65.2,63.7,30.02,NE,45,0.0,2.0,95,0.00,,---,0.55,VWS V14.00,2013-08-16 13:05:00,
2013-08-16 08:10:00,65.2,63.4,30.01,NE,45,0.0,1.0,94,0.00,,---,0.55,VWS V14.00,2013-08-16 13:10:00,
2013-08-16 08:15:00,65.2,63.4,30.02,NE,45,0.0,0.0,94,0.00,,---,0.55,VWS V14.00,2013-08-16 13:15:00,
2013-08-16 08:20:00,65.4,63.9,30.02,NE,45,0.0,2.0,95,0.00,,---,0.55,VWS V14.00,2013-08-16 13:20:00,
2013-08-16 08:25:00,65.6,64.1,30.02,NE,45,0.0,1.0,95,0.00,,---,0.55,VWS V14.00,2013-08-16 13:25:00,
2013-08-16 08:30:00,65.7,64.2,30.02,NE,45,0.0,1.0,95,0.00,,---,0.55,VWS V14.00,2013-08-16 13:30:00,
2013-08-16 08:35:00,65.7,63.9,30.03,NE,45,0.0,2.0,94,0.00,,---,0.55,VWS V14.00,2013-08-16 13:35:00,
2013-08-16 08:40:00,65.6,63.8,30.03,NE,45,0.0,2.0,94,0.00,,---,0.55,VWS V14.00,2013-08-16 13:40:00,
2013-08-16 08:45:00,65.7,63.9,30.02,NE,45,0.0,3.0,94,0.00,,---,0.55,VWS V14.00,2013-08-16 13:45:00,
2013-08-16 08:50:00,65.9,64.1,30.02,NE,45,0.0,2.0,94,0.00,,---,0.55,VWS V14.00,2013-08-16 13:50:00,
2013-08-16 08:55:00,66.3,64.8,30.02,NE,45,0.0,0.0,95,0.00,,---,0.55,VWS V14.00,2013-08-16 13:55:00,
2013-08-16 09:00:00,66.6,64.8,30.02,NE,45,3.0,7.0,94,0.00,,---,0.55,VWS V14.00,2013-08-16 14:00:00,
2013-08-16 09:05:00,66.9,65.1,30.02,ENE,68,4.0,7.0,94,0.00,,---,0.55,VWS V14.00,2013-08-16 14:05:00,
2013-08-16 09:10:00,67.3,65.5,30.02,ENE,68,4.0,6.0,94,0.00,,---,0.55,VWS V14.00,2013-08-16 14:10:00,
2013-08-16 09:15:00,67.7,65.9,30.02,ENE,68,5.0,7.0,94,0.00,,---,0.55,VWS V14.00,2013-08-16 14:15:00,
2013-08-16 09:20:00,68.0,65.9,30.02,ENE,68,4.0,7.0,93,0.00,,---,0.55,VWS V14.00,2013-08-16 14:20:00,
2013-08-16 09:25:00,68.4,66.3,30.02,ENE,68,5.0,7.0,93,0.00,,---,0.55,VWS V14.00,2013-08-16 14:25:00,
2013-08-16 09:30:00,68.8,66.4,30.02,ENE,68,3.0,7.0,92,0.00,,---,0.55,VWS V14.00,2013-08-16 14:30:00,
2013-08-16 09:35:00,69.2,66.5,30.02,East,90,4.0,7.0,91,0.00,,---,0.55,VWS V14.00,2013-08-16 14:35:00,
2013-08-16 09:40:00,69.6,66.5,30.02,East,90,5.0,7.0,90,0.00,,---,0.55,VWS V14.00,2013-08-16 14:40:00,
2013-08-16 09:45:00,70.0,66.6,30.02,East,90,5.0,8.0,89,0.00,,---,0.55,VWS V14.00,2013-08-16 14:45:00,
2013-08-16 09:50:00,70.4,66.3,30.02,East,90,4.0,8.0,87,0.00,,---,0.55,VWS V14.00,2013-08-16 14:50:00,
2013-08-16 09:55:00,70.8,66.4,30.02,East,90,4.0,7.0,86,0.00,,---,0.55,VWS V14.00,2013-08-16 14:55:00,
2013-08-16 10:00:00,71.1,65.7,30.02,ESE,112,5.0,10.0,83,0.00,,---,0.55,VWS V14.00,2013-08-16 15:00:00,
2013-08-16 10:05:00,71.3,65.5,30.02,ESE,112,4.0,8.0,82,0.00,,---,0.55,VWS V14.00,2013-08-16 15:05:00,
2013-08-16 10:10:00,71.5,65.7,30.02,ESE,112,3.0,6.0,82,0.00,,---,0.55,VWS V14.00,2013-08-16 15:10:00,
2013-08-16 10:15:00,71.7,65.6,30.03,ESE,112,2.0,4.0,81,0.00,,---,0.55,VWS V14.00,2013-08-16 15:15:00,
2013-08-16 10:20:00,71.8,65.7,30.03,ESE,112,1.0,4.0,81,0.00,,---,0.55,VWS V14.00,2013-08-16 15:20:00,
2013-08-16 10:25:00,71.7,65.2,30.03,ESE,112,0.0,2.0,80,0.00,,---,0.55,VWS V14.00,2013-08-16 15:25:00,
2013-08-16 10:30:00,71.7,65.2,30.03,ESE,112,2.0,5.0,80,0.00,,---,0.55,VWS V14.00,2013-08-16 15:30:00,
2013-08-16 10:35:00,71.7,65.2,30.03,ESE,112,1.0,3.0,80,0.00,,---,0.55,VWS V14.00,2013-08-16 15:35:00,
2013-08-16 10:40:00,71.6,65.1,30.03,ESE,112,0.0,2.0,80,0.00,,---,0.55,VWS V14.00,2013-08-16 15:40:00,
2013-08-16 10:45:00,71.6,65.1,30.03,ESE,112,1.0,3.0,80,0.00,,---,0.55,VWS V14.00,2013-08-16 15:45:00,
2013-08-16 10:50:00,71.7,65.2,30.03,ESE,112,0.0,3.0,80,0.00,,---,0.55,VWS V14.00,2013-08-16 15:50:00,
2013-08-16 10:55:00,71.7,65.6,30.03,ESE,112,1.0,5.0,81,0.00,,---,0.55,VWS V14.00,2013-08-16 15:55:00,
2013-08-16 11:00:00,72.0,65.5,30.03,ESE,112,3.0,7.0,80,0.00,,---,0.55,VWS V14.00,2013-08-16 16:00:00,
2013-08-16 11:05:00,72.3,65.4,30.03,ESE,112,1.0,6.0,79,0.00,,---,0.55,VWS V14.00,2013-08-16 16:05:00,
2013-08-16 11:10:00,72.8,66.3,30.04,ESE,112,2.0,5.0,80,0.00,,---,0.55,VWS V14.00,2013-08-16 16:10:00,
2013-08-16 11:15:00,73.4,65.8,30.04,ESE,112,1.0,4.0,77,0.00,,---,0.55,VWS V14.00,2013-08-16 16:15:00,
2013-08-16 11:20:00,73.8,65.8,30.04,ESE,112,0.0,3.0,76,0.00,,---,0.55,VWS V14.00,2013-08-16 16:20:00,
2013-08-16 11:25:00,74.0,65.6,30.04,ESE,112,3.0,6.0,75,0.00,,---,0.55,VWS V14.00,2013-08-16 16:25:00,
2013-08-16 11:30:00,73.9,65.1,30.03,ESE,112,2.0,6.0,74,0.00,,---,0.55,VWS V14.00,2013-08-16 16:30:00,
2013-08-16 11:35:00,74.1,66.1,30.03,ESE,112,1.0,6.0,76,0.00,,---,0.55,VWS V14.00,2013-08-16 16:35:00,
2013-08-16 11:40:00,74.6,66.2,30.03,ESE,112,1.0,7.0,75,0.00,,---,0.55,VWS V14.00,2013-08-16 16:40:00,
2013-08-16 11:45:00,75.2,66.3,30.03,ESE,112,1.0,6.0,74,0.00,,---,0.55,VWS V14.00,2013-08-16 16:45:00,
2013-08-16 11:50:00,75.7,66.4,30.03,ESE,112,2.0,6.0,73,0.00,,---,0.55,VWS V14.00,2013-08-16 16:50:00,
2013-08-16 11:55:00,76.1,65.6,30.03,ESE,112,4.0,7.0,70,0.00,,---,0.55,VWS V14.00,2013-08-16 16:55:00,
2013-08-16 12:00:00,76.1,66.0,30.04,ESE,112,3.0,6.0,71,0.00,,---,0.55,VWS V14.00,2013-08-16 17:00:00,
2013-08-16 12:05:00,76.0,66.3,30.03,ESE,112,1.0,4.0,72,0.00,,---,0.55,VWS V14.00,2013-08-16 17:05:00,
2013-08-16 12:10:00,76.4,66.7,30.03,ESE,112,0.0,3.0,72,0.00,,---,0.55,VWS V14.00,2013-08-16 17:10:00,
2013-08-16 12:15:00,76.9,66.4,30.03,ESE,112,1.0,3.0,70,0.00,,---,0.55,VWS V14.00,2013-08-16 17:15:00,
2013-08-16 12:20:00,77.1,66.6,30.03,ESE,112,0.0,3.0,70,0.00,,---,0.55,VWS V14.00,2013-08-16 17:20:00,
2013-08-16 12:25:00,77.3,65.1,30.03,ESE,112,0.0,5.0,66,0.00,,---,0.55,VWS V14.00,2013-08-16 17:25:00,
2013-08-16 12:30:00,77.4,65.6,30.03,ESE,112,0.0,0.0,67,0.00,,---,0.55,VWS V14.00,2013-08-16 17:30:00,
2013-08-16 12:35:00,77.6,66.2,30.03,ESE,112,1.0,7.0,68,0.00,,---,0.55,VWS V14.00,2013-08-16 17:35:00,
2013-08-16 12:40:00,77.7,65.9,30.03,ESE,112,1.0,6.0,67,0.00,,---,0.55,VWS V14.00,2013-08-16 17:40:00,
2013-08-16 12:45:00,77.6,65.8,30.03,ESE,112,1.0,7.0,67,0.00,,---,0.55,VWS V14.00,2013-08-16 17:45:00,
2013-08-16 12:50:00,77.4,66.9,30.03,ESE,112,1.0,4.0,70,0.00,,---,0.55,VWS V14.00,2013-08-16 17:50:00,
2013-08-16 12:55:00,77.5,65.7,30.03,ESE,112,1.0,4.0,67,0.00,,---,0.55,VWS V14.00,2013-08-16 17:55:00,
2013-08-16 13:00:00,77.6,66.6,30.03,ESE,112,2.0,7.0,69,0.00,,---,0.55,VWS V14.00,2013-08-16 18:00:00,
2013-08-16 13:05:00,78.0,66.6,30.02,ESE,112,3.0,6.0,68,0.00,,---,0.55,VWS V14.00,2013-08-16 18:05:00,
2013-08-16 13:10:00,78.0,66.6,30.02,ESE,112,2.0,7.0,68,0.00,,---,0.55,VWS V14.00,2013-08-16 18:10:00,
2013-08-16 13:15:00,78.1,66.7,30.02,ESE,112,0.0,0.0,68,0.00,,---,0.55,VWS V14.00,2013-08-16 18:15:00,
2013-08-16 13:20:00,78.4,65.2,30.02,ESE,112,0.0,3.0,64,0.00,,---,0.55,VWS V14.00,2013-08-16 18:20:00,
2013-08-16 13:25:00,78.6,67.2,30.02,ESE,112,0.0,3.0,68,0.00,,---,0.55,VWS V14.00,2013-08-16 18:25:00,
2013-08-16 13:30:00,78.9,66.6,30.02,SE,135,1.0,9.0,66,0.00,,---,0.55,VWS V14.00,2013-08-16 18:30:00,
2013-08-16 13:35:00,79.2,67.3,30.01,SE,135,1.0,7.0,67,0.00,,---,0.55,VWS V14.00,2013-08-16 18:35:00,
2013-08-16 13:40:00,79.3,66.5,30.01,SE,135,2.0,6.0,65,0.00,,---,0.55,VWS V14.00,2013-08-16 18:40:00,
2013-08-16 13:45:00,79.1,67.6,30.01,SE,135,2.0,5.0,68,0.00,,---,0.55,VWS V14.00,2013-08-16 18:45:00,
2013-08-16 13:50:00,79.2,66.4,30.01,SE,135,1.0,6.0,65,0.00,,---,0.55,VWS V14.00,2013-08-16 18:50:00,
2013-08-16 13:55:00,79.1,67.2,30.01,SE,135,1.0,5.0,67,0.00,,---,0.55,VWS V14.00,2013-08-16 18:55:00,
2013-08-16 14:00:00,79.0,66.7,30.01,SE,135,0.0,0.0,66,0.00,,---,0.55,VWS V14.00,2013-08-16 19:00:00,
2013-08-16 14:05:00,78.8,66.1,30.01,SE,135,0.0,0.0,65,0.00,,---,0.55,VWS V14.00,2013-08-16 19:05:00,
2013-08-16 14:10:00,78.8,66.5,30.01,SE,135,0.0,0.0,66,0.00,,---,0.55,VWS V14.00,2013-08-16 19:10:00,
2013-08-16 14:15:00,78.9,66.6,30.01,SE,135,0.0,3.0,66,0.00,,---,0.55,VWS V14.00,2013-08-16 19:15:00,
2013-08-16 14:20:00,79.1,65.9,30.01,ESE,112,1.0,7.0,64,0.00,,---,0.55,VWS V14.00,2013-08-16 19:20:00,
2013-08-16 14:25:00,79.1,65.9,30.01,ESE,112,0.0,0.0,64,0.00,,---,0.55,VWS V14.00,2013-08-16 19:25:00,
2013-08-16 14:30:00,79.2,66.0,30.01,ESE,112,0.0,3.0,64,0.00,,---,0.55,VWS V14.00,2013-08-16 19:30:00,
2013-08-16 14:35:00,78.9,66.2,30.01,ESE,112,2.0,7.0,65,0.00,,---,0.55,VWS V14.00,2013-08-16 19:35:00,
2013-08-16 14:40:00,78.6,65.4,30.01,ESE,112,2.0,5.0,64,0.00,,---,0.55,VWS V14.00,2013-08-16 19:40:00,
2013-08-16 14:45:00,78.5,66.2,30.01,ESE,112,1.0,4.0,66,0.00,,---,0.55,VWS V14.00,2013-08-16 19:45:00,
2013-08-16 14:50:00,78.6,65.9,30.00,ESE,112,2.0,5.0,65,0.00,,---,0.55,VWS V14.00,2013-08-16 19:50:00,
2013-08-16 14:55:00,78.7,65.5,30.00,East,90,1.0,5.0,64,0.00,,---,0.55,VWS V14.00,2013-08-16 19:55:00,
2013-08-16 15:00:00,78.6,65.0,30.00,East,90,0.0,2.0,63,0.00,,---,0.55,VWS V14.00,2013-08-16 20:00:00,
2013-08-16 15:05:00,78.5,65.8,30.00,East,90,1.0,4.0,65,0.00,,---,0.55,VWS V14.00,2013-08-16 20:05:00,
2013-08-16 15:10:00,78.7,65.5,30.00,East,90,0.0,3.0,64,0.00,,---,0.55,VWS V14.00,2013-08-16 20:10:00,
2013-08-16 15:15:00,79.0,65.8,30.00,East,90,3.0,5.0,64,0.00,,---,0.55,VWS V14.00,2013-08-16 20:15:00,
2013-08-16 15:20:00,79.4,65.3,30.00,East,90,1.0,4.0,62,0.00,,---,0.55,VWS V14.00,2013-08-16 20:20:00,
2013-08-16 15:25:00,79.8,65.6,29.99,East,90,3.0,6.0,62,0.00,,---,0.55,VWS V14.00,2013-08-16 20:25:00,
2013-08-16 15:30:00,79.6,65.9,29.99,East,90,2.0,5.0,63,0.00,,---,0.55,VWS V14.00,2013-08-16 20:30:00,
2013-08-16 15:35:00,79.7,66.5,29.99,East,90,2.0,9.0,64,0.00,,---,0.55,VWS V14.00,2013-08-16 20:35:00,
2013-08-16 15:40:00,79.8,66.6,29.99,East,90,2.0,6.0,64,0.00,,---,0.55,VWS V14.00,2013-08-16 20:40:00,
2013-08-16 15:45:00,79.9,66.2,30.00,East,90,1.0,5.0,63,0.00,,---,0.55,VWS V14.00,2013-08-16 20:45:00,
2013-08-16 15:50:00,80.1,65.4,29.99,East,90,0.0,2.0,61,0.00,,---,0.55,VWS V14.00,2013-08-16 20:50:00,
2013-08-16 15:55:00,80.3,67.0,29.99,East,90,1.0,5.0,64,0.00,,---,0.55,VWS V14.00,2013-08-16 20:55:00,
2013-08-16 16:00:00,80.4,67.1,29.99,East,90,2.0,7.0,64,0.00,,---,0.55,VWS V14.00,2013-08-16 21:00:00,
2013-08-16 16:05:00,80.0,65.8,29.99,East,90,3.0,8.0,62,0.00,,---,0.55,VWS V14.00,2013-08-16 21:05:00,
2013-08-16 16:10:00,79.4,65.7,29.99,East,90,2.0,7.0,63,0.00,,---,0.55,VWS V14.00,2013-08-16 21:10:00,
2013-08-16 16:15:00,78.9,65.2,29.99,East,90,0.0,4.0,63,0.00,,---,0.55,VWS V14.00,2013-08-16 21:15:00,
2013-08-16 16:20:00,78.9,65.7,29.99,East,90,2.0,5.0,64,0.00,,---,0.55,VWS V14.00,2013-08-16 21:20:00,
2013-08-16 16:25:00,79.2,65.1,29.99,East,90,3.0,6.0,62,0.00,,---,0.55,VWS V14.00,2013-08-16 21:25:00,
2013-08-16 16:30:00,79.5,65.3,29.99,East,90,0.0,1.0,62,0.00,,---,0.55,VWS V14.00,2013-08-16 21:30:00,
2013-08-16 16:35:00,80.0,66.7,29.99,ENE,68,4.0,10.0,64,0.00,,---,0.55,VWS V14.00,2013-08-16 21:35:00,
2013-08-16 16:40:00,80.1,65.9,29.99,ENE,68,2.0,7.0,62,0.00,,---,0.55,VWS V14.00,2013-08-16 21:40:00,
2013-08-16 16:45:00,79.4,65.3,29.99,ENE,68,3.0,5.0,62,0.00,,---,0.55,VWS V14.00,2013-08-16 21:45:00,
2013-08-16 16:50:00,78.9,65.2,29.99,ENE,68,2.0,6.0,63,0.00,,---,0.55,VWS V14.00,2013-08-16 21:50:00,
2013-08-16 16:55:00,79.1,65.0,29.99,ENE,68,1.0,4.0,62,0.00,,---,0.55,VWS V14.00,2013-08-16 21:55:00,
2013-08-16 17:00:00,79.6,65.4,29.99,ENE,68,5.0,10.0,62,0.00,,---,0.55,VWS V14.00,2013-08-16 22:00:00,
2013-08-16 17:05:00,80.0,65.8,29.99,ENE,68,2.0,9.0,62,0.00,,---,0.55,VWS V14.00,2013-08-16 22:05:00,
2013-08-16 17:10:00,79.9,65.7,29.99,ENE,68,2.0,7.0,62,0.00,,---,0.55,VWS V14.00,2013-08-16 22:10:00,
2013-08-16 17:15:00,79.6,66.8,29.99,ENE,68,3.0,7.0,65,0.00,,---,0.55,VWS V14.00,2013-08-16 22:15:00,
2013-08-16 17:20:00,79.8,66.1,29.99,ENE,68,5.0,11.0,63,0.00,,---,0.55,VWS V14.00,2013-08-16 22:20:00,
2013-08-16 17:25:00,79.8,65.6,29.99,ENE,68,5.0,9.0,62,0.00,,---,0.55,VWS V14.00,2013-08-16 22:25:00,
2013-08-16 17:30:00,79.7,66.0,29.99,ENE,68,5.0,10.0,63,0.00,,---,0.55,VWS V14.00,2013-08-16 22:30:00,
2013-08-16 17:35:00,79.6,66.4,29.99,ENE,68,3.0,6.0,64,0.00,,---,0.55,VWS V14.00,2013-08-16 22:35:00,
2013-08-16 17:40:00,79.7,65.5,29.99,ENE,68,6.0,10.0,62,0.00,,---,0.55,VWS V14.00,2013-08-16 22:40:00,
2013-08-16 17:45:00,79.5,66.3,29.99,ENE,68,4.0,7.0,64,0.00,,---,0.55,VWS V14.00,2013-08-16 22:45:00,
2013-08-16 17:50:00,79.1,66.3,29.99,ENE,68,3.0,5.0,65,0.00,,---,0.55,VWS V14.00,2013-08-16 22:50:00,
2013-08-16 17:55:00,79.0,65.3,29.99,ENE,68,4.0,7.0,63,0.00,,---,0.55,VWS V14.00,2013-08-16 22:55:00,
2013-08-16 18:00:00,79.1,65.0,29.99,ENE,68,6.0,10.0,62,0.00,,---,0.55,VWS V14.00,2013-08-16 23:00:00,
2013-08-16 18:05:00,79.1,65.4,29.99,ENE,68,6.0,10.0,63,0.00,,---,0.55,VWS V14.00,2013-08-16 23:05:00,
2013-08-16 18:10:00,79.0,64.9,29.99,ENE,68,4.0,7.0,62,0.00,,---,0.55,VWS V14.00,2013-08-16 23:10:00,
2013-08-16 18:15:00,78.9,65.2,29.99,ENE,68,3.0,5.0,63,0.00,,---,0.55,VWS V14.00,2013-08-16 23:15:00,
2013-08-16 18:20:00,79.0,65.8,29.99,ENE,68,3.0,6.0,64,0.00,,---,0.55,VWS V14.00,2013-08-16 23:20:00,
2013-08-16 18:25:00,79.0,65.8,29.99,ENE,68,4.0,9.0,64,0.00,,---,0.55,VWS V14.00,2013-08-16 23:25:00,
2013-08-16 18:30:00,78.9,64.8,29.99,ENE,68,4.0,5.0,62,0.00,,---,0.55,VWS V14.00,2013-08-16 23:30:00,
2013-08-16 18:35:00,78.7,65.1,29.99,ENE,68,4.0,6.0,63,0.00,,---,0.55,VWS V14.00,2013-08-16 23:35:00,
2013-08-16 18:40:00,78.7,65.5,29.99,ENE,68,4.0,5.0,64,0.00,,---,0.55,VWS V14.00,2013-08-16 23:40:00,
2013-08-16 18:45:00,78.6,65.9,29.99,ENE,68,4.0,7.0,65,0.00,,---,0.55,VWS V14.00,2013-08-16 23:45:00,
2013-08-16 18:50:00,78.4,64.8,29.99,ENE,68,5.0,7.0,63,0.00,,---,0.55,VWS V14.00,2013-08-16 23:50:00,
2013-08-16 18:55:00,78.1,65.4,29.99,ENE,68,4.0,6.0,65,0.00,,---,0.55,VWS V14.00,2013-08-16 23:55:00,
2013-08-16 19:00:00,77.9,65.2,29.99,ENE,68,3.0,5.0,65,0.00,,---,0.55,VWS V14.00,2013-08-17 00:00:00,
2013-08-16 19:05:00,77.7,65.4,29.99,ENE,68,4.0,6.0,66,0.00,,---,0.55,VWS V14.00,2013-08-17 00:05:00,
2013-08-16 19:10:00,77.4,65.6,29.99,ENE,68,2.0,4.0,67,0.00,,---,0.55,VWS V14.00,2013-08-17 00:10:00,
2013-08-16 19:15:00,77.2,65.8,29.99,ENE,68,2.0,4.0,68,0.00,,---,0.55,VWS V14.00,2013-08-17 00:15:00,
2013-08-16 19:20:00,77.1,66.2,30.00,ENE,68,0.0,1.0,69,0.00,,---,0.55,VWS V14.00,2013-08-17 00:20:00,
2013-08-16 19:25:00,77.0,66.1,30.00,ENE,68,2.0,4.0,69,0.00,,---,0.55,VWS V14.00,2013-08-17 00:25:00,
2013-08-16 19:30:00,76.7,66.2,30.00,ENE,68,1.0,3.0,70,0.00,,---,0.55,VWS V14.00,2013-08-17 00:30:00,
2013-08-16 19:35:00,76.5,66.8,30.00,ENE,68,0.0,0.0,72,0.00,,---,0.55,VWS V14.00,2013-08-17 00:35:00,
2013-08-16 19:40:00,76.2,66.5,30.00,ENE,68,0.0,0.0,72,0.00,,---,0.55,VWS V14.00,2013-08-17 00:40:00,
2013-08-16 19:45:00,75.9,66.6,30.00,ENE,68,0.0,0.0,73,0.00,,---,0.55,VWS V14.00,2013-08-17 00:45:00,
2013-08-16 19:50:00,75.6,66.7,30.00,ENE,68,0.0,0.0,74,0.00,,---,0.55,VWS V14.00,2013-08-17 00:50:00,
2013-08-16 19:55:00,75.2,67.1,30.00,ENE,68,0.0,0.0,76,0.00,,---,0.55,VWS V14.00,2013-08-17 00:55:00,
2013-08-16 20:00:00,74.9,67.2,30.01,ENE,68,0.0,0.0,77,0.00,,---,0.55,VWS V14.00,2013-08-17 01:00:00,
2013-08-16 20:05:00,74.6,66.9,30.01,ENE,68,0.0,0.0,77,0.00,,---,0.55,VWS V14.00,2013-08-17 01:05:00,
2013-08-16 20:10:00,74.3,67.0,30.01,ENE,68,0.0,0.0,78,0.00,,---,0.55,VWS V14.00,2013-08-17 01:10:00,
2013-08-16 20:15:00,74.2,67.3,30.01,ENE,68,0.0,0.0,79,0.00,,---,0.55,VWS V14.00,2013-08-17 01:15:00,
2013-08-16 20:20:00,74.0,67.1,30.01,ENE,68,0.0,0.0,79,0.00,,---,0.55,VWS V14.00,2013-08-17 01:20:00,
2013-08-16 20:25:00,73.9,67.3,30.01,ENE,68,0.0,0.0,80,0.00,,---,0.55,VWS V14.00,2013-08-17 01:25:00,
2013-08-16 20:30:00,73.6,67.4,30.01,ENE,68,0.0,0.0,81,0.00,,---,0.55,VWS V14.00,2013-08-17 01:30:00,
2013-08-16 20:35:00,73.4,67.2,30.01,ENE,68,0.0,0.0,81,0.00,,---,0.55,VWS V14.00,2013-08-17 01:35:00,
2013-08-16 20:40:00,73.2,67.4,30.02,ENE,68,0.0,0.0,82,0.00,,---,0.55,VWS V14.00,2013-08-17 01:40:00,
2013-08-16 20:45:00,72.9,67.1,30.02,ENE,68,0.0,0.0,82,0.00,,---,0.55,VWS V14.00,2013-08-17 01:45:00,
2013-08-16 20:50:00,72.6,66.8,30.02,ENE,68,0.0,0.0,82,0.00,,---,0.55,VWS V14.00,2013-08-17 01:50:00,
2013-08-16 20:55:00,72.4,67.3,30.02,ENE,68,0.0,0.0,84,0.00,,---,0.55,VWS V14.00,2013-08-17 01:55:00,
2013-08-16 21:00:00,72.3,67.2,30.02,ENE,68,0.0,0.0,84,0.00,,---,0.55,VWS V14.00,2013-08-17 02:00:00,
2013-08-16 21:05:00,72.0,66.9,30.02,ENE,68,0.0,0.0,84,0.00,,---,0.55,VWS V14.00,2013-08-17 02:05:00,
2013-08-16 21:10:00,71.7,66.9,30.02,ENE,68,0.0,0.0,85,0.00,,---,0.55,VWS V14.00,2013-08-17 02:10:00,
2013-08-16 21:15:00,71.4,66.7,30.02,ENE,68,0.0,0.0,85,0.00,,---,0.55,VWS V14.00,2013-08-17 02:15:00,
2013-08-16 21:20:00,71.3,66.6,30.02,ENE,68,0.0,0.0,85,0.00,,---,0.55,VWS V14.00,2013-08-17 02:20:00,
2013-08-16 21:25:00,71.1,66.7,30.03,ENE,68,0.0,0.0,86,0.00,,---,0.55,VWS V14.00,2013-08-17 02:25:00,
2013-08-16 21:30:00,70.9,66.8,30.03,ENE,68,0.0,0.0,87,0.00,,---,0.55,VWS V14.00,2013-08-17 02:30:00,
2013-08-16 21:35:00,70.6,66.6,30.03,ENE,68,0.0,0.0,87,0.00,,---,0.55,VWS V14.00,2013-08-17 02:35:00,
2013-08-16 21:40:00,70.2,65.8,30.03,ENE,68,0.0,0.0,86,0.00,,---,0.55,VWS V14.00,2013-08-17 02:40:00,
2013-08-16 21:45:00,69.8,65.8,30.04,ENE,68,0.0,0.0,87,0.00,,---,0.55,VWS V14.00,2013-08-17 02:45:00,
2013-08-16 21:50:00,69.6,65.6,30.04,ENE,68,0.0,0.0,87,0.00,,---,0.55,VWS V14.00,2013-08-17 02:50:00,
2013-08-16 21:55:00,69.4,65.4,30.04,ENE,68,0.0,0.0,87,0.00,,---,0.55,VWS V14.00,2013-08-17 02:55:00,
2013-08-16 22:00:00,69.3,65.3,30.04,ENE,68,0.0,0.0,87,0.00,,---,0.55,VWS V14.00,2013-08-17 03:00:00,
2013-08-16 22:05:00,69.3,65.3,30.04,ENE,68,0.0,0.0,87,0.00,,---,0.55,VWS V14.00,2013-08-17 03:05:00,
2013-08-16 22:10:00,69.2,65.2,30.04,ENE,68,0.0,0.0,87,0.00,,---,0.55,VWS V14.00,2013-08-17 03:10:00,
2013-08-16 22:15:00,69.0,65.3,30.04,ENE,68,0.0,0.0,88,0.00,,---,0.55,VWS V14.00,2013-08-17 03:15:00,
2013-08-16 22:20:00,68.8,65.1,30.04,ENE,68,0.0,0.0,88,0.00,,---,0.55,VWS V14.00,2013-08-17 03:20:00,
2013-08-16 22:25:00,68.6,64.9,30.04,ENE,68,0.0,0.0,88,0.00,,---,0.55,VWS V14.00,2013-08-17 03:25:00,
2013-08-16 22:30:00,68.4,64.7,30.03,ENE,68,0.0,0.0,88,0.00,,---,0.55,VWS V14.00,2013-08-17 03:30:00,
2013-08-16 22:35:00,68.3,64.6,30.04,ENE,68,0.0,0.0,88,0.00,,---,0.55,VWS V14.00,2013-08-17 03:35:00,
2013-08-16 22:40:00,68.2,64.5,30.04,ENE,68,0.0,0.0,88,0.00,,---,0.55,VWS V14.00,2013-08-17 03:40:00,
2013-08-16 22:45:00,68.1,64.4,30.04,ENE,68,0.0,0.0,88,0.00,,---,0.55,VWS V14.00,2013-08-17 03:45:00,
2013-08-16 22:50:00,68.1,64.4,30.04,ENE,68,0.0,0.0,88,0.00,,---,0.55,VWS V14.00,2013-08-17 03:50:00,
2013-08-16 22:55:00,68.0,64.3,30.04,ENE,68,0.0,0.0,88,0.00,,---,0.55,VWS V14.00,2013-08-17 03:55:00,
2013-08-16 23:00:00,67.9,64.2,30.04,ENE,68,0.0,0.0,88,0.00,,---,0.55,VWS V14.00,2013-08-17 04:00:00,
2013-08-16 23:05:00,67.8,64.1,30.04,ENE,68,0.0,0.0,88,0.00,,---,0.55,VWS V14.00,2013-08-17 04:05:00,
2013-08-16 23:10:00,67.7,64.0,30.04,ENE,68,0.0,0.0,88,0.00,,---,0.55,VWS V14.00,2013-08-17 04:10:00,
2013-08-16 23:15:00,67.6,63.9,30.04,ENE,68,0.0,0.0,88,0.00,,---,0.55,VWS V14.00,2013-08-17 04:15:00,
2013-08-16 23:20:00,67.5,63.8,30.04,ENE,68,0.0,0.0,88,0.00,,---,0.55,VWS V14.00,2013-08-17 04:20:00,
2013-08-16 23:25:00,67.5,63.8,30.05,ENE,68,0.0,0.0,88,0.00,,---,0.55,VWS V14.00,2013-08-17 04:25:00,
2013-08-16 23:30:00,67.4,63.7,30.05,ENE,68,0.0,1.0,88,0.00,,---,0.55,VWS V14.00,2013-08-17 04:30:00,
2013-08-16 23:35:00,67.4,63.7,30.05,ENE,68,0.0,0.0,88,0.00,,---,0.55,VWS V14.00,2013-08-17 04:35:00,
2013-08-16 23:40:00,67.4,63.7,30.05,ENE,68,0.0,0.0,88,0.00,,---,0.55,VWS V14.00,2013-08-17 04:40:00,
2013-08-16 23:45:00,67.3,63.6,30.05,ENE,68,0.0,0.0,88,0.00,,---,0.55,VWS V14.00,2013-08-17 04:45:00,
2013-08-16 23:50:00,67.3,63.6,30.05,ENE,68,0.0,0.0,88,0.00,,---,0.55,VWS V14.00,2013-08-17 04:50:00,
2013-08-16 23:55:00,67.2,63.5,30.05,ENE,68,0.0,0.0,88,0.00,,---,0.55,VWS V14.00,2013-08-17 04:55:00,